CDT,Max TemperatureF,Mean TemperatureF,Min TemperatureF,Max Dew PointF,MeanDew PointF,Min DewpointF,Max Humidity, Mean Humidity, Min Humidity, Max Sea Level PressureIn, Mean Sea Level PressureIn, Min Sea Level PressureIn, Max VisibilityMiles, Mean VisibilityMiles, Min VisibilityMiles, Max Wind SpeedMPH, Mean Wind SpeedMPH, Max Gust SpeedMPH,PrecipitationIn, CloudCover, Events, WindDirDegrees
2013-5-1,55,44,33,40,31,28,93,84,45,30.52,30.34,29.96,10,4,0,9,3,,0.37,8,Fog-Rain-Snow,277
2013-5-2,33,32,30,30,28,27,100,90,85,30.56,30.50,30.42,10,2,0,7,4,,0.93,8,Fog-Snow,21
2013-5-3,30,29,28,28,26,25,93,86,80,30.45,30.29,30.19,10,5,1,14,5,23,0.17,8,Rain-Snow,24
2013-5-4,41,34,30,36,31,28,93,90,82,30.25,30.19,30.15,10,9,2,8,6,,0.14,8,Rain,27
2013-5-5,54,44,33,39,34,31,93,79,57,30.23,30.18,30.14,10,10,10,7,2,,0.00,4,,36
2013-5-6,73,52,30,43,37,29,96,63,29,30.16,30.10,30.04,10,10,10,9,1,,0.00,0,,60
2013-5-7,78,55,35,44,38,33,93,55,23,30.10,30.04,29.97,10,10,9,8,2,16,0.00,1,,197
2013-5-8,75,55,37,55,45,34,93,67,30,30.06,30.02,30.00,10,10,3,7,1,,0.05,4,Rain,71
2013-5-9,55,46,37,49,38,27,93,83,60,30.19,30.11,30.01,10,9,3,12,6,21,0.19,7,Rain,29
2013-5-10,62,46,30,30,26,20,85,49,22,30.18,30.06,29.88,10,10,10,9,4,17,0.00,1,,47
2013-5-11,51,42,36,31,27,22,76,59,45,30.15,30.01,29.86,10,10,10,14,5,26,0.01,7,Rain,315
2013-5-12,53,41,30,24,18,13,64,43,21,30.20,30.15,30.11,10,10,10,10,4,17,0.00,2,,333
2013-5-13,60,40,21,34,24,18,89,50,23,30.17,30.02,29.72,10,10,10,12,4,22,0.00,1,,177
2013-5-14,84,58,33,47,39,29,85,44,22,29.80,29.62,29.42,10,10,9,18,5,26,0.00,1,,193
2013-5-15,80,64,50,45,39,31,74,41,18,29.87,29.79,29.61,10,10,10,9,6,23,0.00,2,,298
2013-5-16,75,60,48,42,34,25,74,39,18,30.01,29.95,29.86,10,10,10,10,3,,0.00,2,,44
2013-5-17,72,62,54,51,42,30,72,52,36,30.09,30.05,30.00,10,10,10,14,7,20,0.00,5,,119
2013-5-18,73,63,53,63,53,46,94,85,61,30.06,29.99,29.86,10,8,2,13,6,18,0.60,7,Rain-Thunderstorm,144
2013-5-19,84,72,60,63,60,57,94,79,41,29.87,29.76,29.67,10,8,1,18,7,37,0.66,4,Rain-Thunderstorm,127
2013-5-20,73,59,46,61,55,44,94,83,55,29.69,29.63,29.55,10,9,4,14,9,22,0.43,8,Rain,109
2013-5-21,59,50,41,48,43,39,100,86,69,29.79,29.68,29.61,10,8,2,8,5,,0.77,8,Rain,32
2013-5-22,52,46,41,45,42,38,93,86,71,30.07,29.84,29.73,10,9,2,16,6,30,0.03,8,Rain,32
2013-5-23,55,44,30,36,29,24,92,57,31,30.40,30.28,30.09,10,10,10,15,10,24,0.00,0,,39
2013-5-24,66,46,27,37,31,25,92,55,26,30.46,30.37,30.29,10,10,10,10,2,,0.00,0,,174
2013-5-25,66,56,43,44,41,39,89,62,41,30.35,30.31,30.28,10,10,10,14,3,17,0.00,5,,152
2013-5-26,70,52,37,41,35,30,93,55,24,30.33,30.25,30.16,10,10,10,16,4,23,0.00,1,,116
2013-5-27,69,60,51,46,42,37,63,53,42,30.13,30.01,29.91,10,10,10,14,8,23,0.00,7,,125
2013-5-28,64,59,54,56,50,44,97,77,67,29.90,29.79,29.75,10,9,2,8,4,,0.03,8,Rain,132
2013-5-29,80,68,55,64,56,54,100,83,48,29.86,29.80,29.73,10,7,2,12,2,21,0.01,6,,168
2013-5-30,79,70,62,65,62,59,94,81,58,29.76,29.67,29.58,10,9,2,18,8,30,0.59,6,Rain-Thunderstorm,150
2013-5-31,79,67,54,61,55,48,97,72,36,29.67,29.60,29.54,10,9,2,18,10,29,0.36,5,Rain-Thunderstorm,170